• Join FlightAware (Why Join?)
  • Login
  • US Flag GB Flag 
16:09 EST


 

Airport Tracker/Info


-or-


 

Live Flight TrackerFlight Track Log ✈ SWA268 ✈ 12-Apr-2013 ✈ KLAS - KABQ

Flight Track Log - Related Links

Times and Time Zones

All times are in EDT time to prevent confusion due to time zone crossing. See the SWA268 flight status page for this flight to view local times or setup timezone preferences in your user account.

Time Position Orientation Groundspeed Altitude Reporting Facility
EDT Latitude Longitude Course Direction KTS MPH feet Rate Location/Type
13:55 36.0744 -115.2006 268° West 179 206 4,000  Level Los Angeles Center
13:56 36.0628 -115.2544 255° West 211 243 6,000 2,507 Climbing Los Angeles Center
13:56 36.0419 -115.2697 211° Southwest 244 281 6,800 968 Climbing Los Angeles Center
13:57 35.9944 -115.2903 199° South 260 299 7,000 197 Climbing Los Angeles Center
13:57 35.9706 -115.2986 196° South 283 326 7,000 1,258 Level Los Angeles Center
13:58 35.9175 -115.2797 164° South 276 318 8,300 2,411 Climbing Los Angeles Center
13:59 35.8561 -115.2169 140° Southeast 299 344 11,300 3,072 Climbing Los Angeles Center
14:00 35.8292 -115.1039 106° East 343 395 14,700 3,120 Climbing Los Angeles Center
14:01 35.8303 -114.9792 89° East 367 422 17,800 3,242 Climbing Los Angeles Center
14:02 35.8439 -114.8231 84° East 383 441 21,400 2,952 Climbing Los Angeles Center
14:03 35.8567 -114.6867 83° East 395 455 23,900 1,742 Climbing Los Angeles Center
14:04 35.8683 -114.5436 84° East 412 474 25,000 677 Climbing Los Angeles Center
14:05 35.8817 -114.3969 84° East 427 491 25,300 1,103 Climbing Los Angeles Center
14:06 35.8942 -114.2511 84° East 429 494 27,500 2,058 Climbing Los Angeles Center
14:07 35.9097 -114.0711 84° East 438 504 30,000 2,256 Climbing Los Angeles Center
14:08 35.9219 -113.8856 85° East 449 517 32,200 2,129 Climbing Los Angeles Center
14:09 35.8961 -113.7331 102° East 453 521 34,400 1,694 Climbing Los Angeles Center
14:10 35.8736 -113.5819 100° East 452 520 35,700 1,113 Climbing Los Angeles Center
14:11 35.8478 -113.4242 101° East 464 534 36,700 1,065 Climbing Los Angeles Center
14:12 35.8228 -113.2672 101° East 467 537 37,900 1,113 Climbing Los Angeles Center
14:13 35.7967 -113.1103 102° East 467 537 39,000 532 Climbing Los Angeles Center
14:14 35.7658 -112.9244 102° East 463 533 39,000  Level Los Angeles Center
14:15 35.7411 -112.7697 101° East 461 531 39,000  Level Los Angeles Center
14:16 35.7158 -112.6161 101° East 459 528 39,000  Level Los Angeles Center
14:17 35.6906 -112.4625 101° East 458 527 39,000  Level Los Angeles Center
14:19 35.6783 -112.3064 95° East 459 528 39,000  Level Los Angeles Center
14:20 35.6714 -112.1514 93° East 458 527 39,000  Level Los Angeles Center
14:21 35.6639 -111.9619 93° East 461 531 39,000  Level Los Angeles Center
14:22 35.6542 -111.8011 94° East 472 543 39,000  Level Los Angeles Center
14:23 35.6464 -111.6397 93° East 475 547 39,000  Level Los Angeles Center
14:24 35.6369 -111.4775 94° East 476 548 39,000  Level Albuquerque Center
14:25 35.6303 -111.3194 93° East 474 545 39,000  Level Albuquerque Center
14:26 35.6219 -111.1381 93° East 476 548 39,000  Level Albuquerque Center
14:27 35.6117 -110.9814 95° East 479 551 39,000  Level Albuquerque Center
14:28 35.6008 -110.7992 94° East 479 551 39,000  Level Albuquerque Center
14:29 35.5908 -110.6422 94° East 481 554 39,000  Level Albuquerque Center
14:30 35.5811 -110.4592 94° East 481 554 39,000  Level Albuquerque Center
14:31 35.5708 -110.3014 95° East 484 557 39,000  Level Albuquerque Center
14:32 35.5611 -110.1175 94° East 484 557 39,000  Level Albuquerque Center
14:33 35.5511 -109.9594 94° East 486 559 39,000  Level Albuquerque Center
14:34 35.5394 -109.7753 94° East 486 559 39,000  Level Albuquerque Center
14:35 35.5292 -109.6164 94° East 487 560 39,000 -97 Level Albuquerque Center
14:36 35.5156 -109.4292 95° East 492 566 38,800 -581 Descending Albuquerque Center
14:37 35.5056 -109.2697 94° East 493 567 37,800 -919 Descending Albuquerque Center
14:38 35.4936 -109.1147 95° East 485 558 36,900 -927 Descending Albuquerque Center
14:39 35.4822 -108.9300 94° East 487 560 35,900 -927 Descending Albuquerque Center
14:40 35.4783 -108.7708 92° East 489 563 35,000 -532 Descending Albuquerque Center
14:41 35.4381 -108.5950 106° East 484 557 34,800 -1,161 Descending Albuquerque Center
14:42 35.4081 -108.4436 104° East 478 550 32,600 -2,371 Descending Albuquerque Center
14:43 35.4156 -108.2636 87° East 473 544 29,900 -1,742 Descending Albuquerque Center
14:44 35.4231 -108.1167 86° East 462 532 29,000 -1,984 Descending Albuquerque Center
14:45 35.4306 -107.9503 87° East 445 512 25,800 -2,806 Descending Albuquerque Center
14:46 35.4367 -107.8042 87° East 447 514 23,200 -2,565 Descending Albuquerque Center
14:47 35.4442 -107.6386 87° East 441 507 20,500 -2,274 Descending Albuquerque Center
14:48 35.4328 -107.5042 96° East 423 487 18,500 -2,089 Descending Albuquerque Center
14:49 35.4247 -107.3864 95° East 385 443 16,600 -1,964 Descending Albuquerque Center
14:50 35.3728 -107.2667 118° Southeast 363 418 14,900 -1,467 Descending Albuquerque Center
14:52 35.3175 -107.1589 122° Southeast 345 397 13,300 -1,453 Descending Albuquerque Center
14:52 35.2633 -107.0733 128° Southeast 326 375 11,800 -1,682 Descending Albuquerque Center
14:53 35.2047 -107.0053 136° Southeast 318 366 10,300 -1,437 Descending Albuquerque Center
14:54 35.1969 -106.9958 135° Southeast 322 371 10,100 -885 Descending Albuquerque Center
14:54 35.1461 -106.9369 137° Southeast 279 321 9,400 -871 Descending Albuquerque Center
14:55 35.1289 -106.9167 136° Southeast 299 344 9,200 -393 Descending Albuquerque Center
14:55 35.0953 -106.8772 136° Southeast 242 278 9,000 -290 Descending Albuquerque Center
14:56 35.0903 -106.8689 126° Southeast 269 310 8,900  Descending Albuquerque Center
14:56 35.0392 -106.8111 137° Southeast 241 277 9,000  Climbing Albuquerque Center
14:57 35.0364 -106.8075 133° Southeast 255 293 8,900 -787 Descending Albuquerque Center
14:57 34.9922 -106.7739 148° Southeast 207 238 8,200 -774 Descending Albuquerque Center
14:58 34.9872 -106.7689 141° Southeast 226 260 8,100 -1,100 Descending Albuquerque Center
14:58 34.9669 -106.7156 115° Southeast 203 234 7,100 -1,355 Descending Albuquerque Center
14:59 34.9700 -106.6956 79° East 212 244 6,700 -984 Descending Albuquerque Center
14:59 34.9928 -106.6675 45° Northeast 160 184 6,100 -726 Descending Albuquerque Center
15:01 35.0344 -106.6142 46° Northeast 165 190 5,200 -667 Descending Albuquerque Center
15:03 35.0333 -106.6000 90° East  Level FlightAware Approximate